Time;durP1;ratioP1;P1;durP2;ratioP2;P2;SDS_P1;SDS_P2;PMS_P1;PMS_P2;Temp;Humidity;BMP_temperature;BMP_pressure;BME280_temperature;BME280_humidity;BME280_pressure;Samples;Min_cycle;Max_cycle;Signal;HPM_P1;HPM_P2
2021/06/13 00:01:20;;;;;;;4.10;1.90;;;;;;;12.17;100.00;93230.81;4970115;28;20078;-86
2021/06/13 00:03:46;;;;;;;;;;;;;;;12.11;100.00;93231.69;4970444;28;20415;-88
2021/06/13 00:06:14;;;;;;;2.15;1.52;;;;;;;11.94;100.00;93221.97;4970305;28;19922;-87
2021/06/13 00:08:41;;;;;;;3.38;2.20;;;;;;;12.01;100.00;93224.47;4973603;28;20058;-86
2021/06/13 00:11:08;;;;;;;4.00;1.95;;;;;;;11.92;100.00;93223.19;4973247;28;20057;-86
2021/06/13 00:13:34;;;;;;;4.68;2.17;;;;;;;11.56;100.00;93158.69;4973668;28;20058;-87
2021/06/13 00:16:01;;;;;;;2.35;1.50;;;;;;;11.71;100.00;93186.63;4973553;28;20422;-86
2021/06/13 00:18:27;;;;;;;3.35;1.65;;;;;;;11.56;100.00;93162.06;4973211;28;20616;-86
2021/06/13 00:20:54;;;;;;;2.97;2.10;;;;;;;11.97;100.00;93218.97;4973216;28;20051;-84
2021/06/13 00:23:22;;;;;;;3.42;2.08;;;;;;;11.94;100.00;93219.41;4973458;28;20069;-87
2021/06/13 00:25:49;;;;;;;2.17;1.20;;;;;;;11.89;100.00;93224.41;4973207;28;20047;-85
2021/06/13 00:28:16;;;;;;;2.92;1.45;;;;;;;11.67;100.00;93199.13;4973321;28;20392;-85
2021/06/13 00:30:43;;;;;;;3.78;1.98;;;;;;;11.75;100.00;93222.00;4972941;28;20059;-83
2021/06/13 00:33:10;;;;;;;4.28;1.83;;;;;;;11.76;100.00;93220.22;4972835;28;20058;-86
2021/06/13 00:35:37;;;;;;;3.15;1.67;;;;;;;11.58;100.00;93210.72;4972931;28;20054;-86
2021/06/13 00:38:04;;;;;;;2.85;1.60;;;;;;;11.61;100.00;93218.00;4972875;28;20047;-86
2021/06/13 00:40:31;;;;;;;1.77;1.05;;;;;;;11.65;100.00;93210.63;4973018;28;20061;-86
2021/06/13 00:42:58;;;;;;;2.78;1.60;;;;;;;11.17;100.00;93146.09;4972726;28;20596;-85
2021/06/13 00:45:24;;;;;;;2.33;1.30;;;;;;;11.55;100.00;93211.16;4972844;28;20051;-86
2021/06/13 00:47:51;;;;;;;2.72;1.50;;;;;;;11.48;100.00;93209.44;4972646;28;20058;-86
2021/06/13 00:50:24;;;;;;;2.50;1.35;;;;;;;11.21;100.00;93165.22;4972855;28;20380;-86
2021/06/13 00:52:50;;;;;;;2.45;1.80;;;;;;;11.49;100.00;93198.16;4972745;28;20050;-86
2021/06/13 00:55:17;;;;;;;3.03;1.60;;;;;;;11.49;100.00;93199.94;4972848;28;20101;-87
2021/06/13 00:57:45;;;;;;;2.45;1.58;;;;;;;11.46;100.00;93198.59;4972803;28;20086;-86
2021/06/13 01:00:12;;;;;;;2.13;1.27;;;;;;;11.42;100.00;93197.44;4972732;28;20054;-85
2021/06/13 01:02:38;;;;;;;6.50;1.52;;;;;;;11.38;100.00;93206.56;4972690;28;20090;-87
2021/06/13 01:05:06;;;;;;;3.30;1.67;;;;;;;10.98;100.00;93145.28;4972210;28;20051;-85
2021/06/13 01:07:44;;;;;;;3.70;2.20;;;;;;;10.88;100.00;93131.16;4972946;28;20069;-87
2021/06/13 01:10:19;;;;;;;2.08;1.65;;;;;;;11.16;100.00;93165.09;4973272;28;20105;-86
2021/06/13 01:12:56;;;;;;;2.45;1.50;;;;;;;11.39;100.00;93195.28;4972669;28;20058;-87
2021/06/13 01:15:27;;;;;;;2.28;1.67;;;;;;;11.44;100.00;93194.66;4972069;28;20054;-86
2021/06/13 01:18:11;;;;;;;3.13;1.20;;;;;;;11.49;100.00;93192.22;4972009;28;20108;-86
2021/06/13 01:20:44;;;;;;;1.98;1.35;;;;;;;11.46;100.00;93190.88;4972221;28;20055;-86
2021/06/13 01:23:41;;;;;;;2.38;1.30;;;;;;;11.37;100.00;93187.00;4972034;28;20051;-86
2021/06/13 01:26:22;;;;;;;1.92;1.30;;;;;;;11.08;100.00;93150.72;4972790;28;20054;-86
2021/06/13 01:29:00;;;;;;;2.58;1.40;;;;;;;11.23;100.00;93179.44;4972687;28;20053;-87
2021/06/13 01:31:31;;;;;;;3.55;1.98;;;;;;;11.20;100.00;93167.00;4971709;28;20134;-86
2021/06/13 01:34:00;;;;;;;3.33;2.05;;;;;;;11.00;100.00;93141.50;4971734;28;20046;-86
2021/06/13 01:36:28;;;;;;;2.25;1.55;;;;;;;11.43;100.00;93185.38;4971902;28;20491;-86
2021/06/13 01:38:56;;;;;;;3.22;1.63;;;;;;;11.28;100.00;93158.22;4972040;28;20047;-87
2021/06/13 01:41:26;;;;;;;1.88;1.58;;;;;;;11.48;100.00;93181.16;4971715;28;20062;-88
2021/06/13 01:43:55;;;;;;;3.60;1.70;;;;;;;11.46;100.00;93184.94;4971879;28;20051;-88
2021/06/13 01:46:23;;;;;;;3.15;1.92;;;;;;;11.00;100.00;93112.44;4971587;28;20047;-89
2021/06/13 01:48:52;;;;;;;3.50;1.85;;;;;;;11.27;100.00;93184.94;4971688;28;20050;-87
2021/06/13 01:51:19;;;;;;;4.57;2.00;;;;;;;11.02;100.00;93131.78;4972183;28;20050;-87
2021/06/13 01:53:46;;;;;;;3.72;1.67;;;;;;;11.11;100.00;93122.00;4971966;28;20165;-87
2021/06/13 01:56:15;;;;;;;2.58;1.25;;;;;;;11.51;100.00;93177.34;4971223;28;20059;-87
2021/06/13 01:58:44;;;;;;;2.30;1.67;;;;;;;11.40;100.00;93168.59;4971418;28;20054;-87
2021/06/13 02:01:12;;;;;;;3.67;2.20;;;;;;;11.10;100.00;93123.00;4971365;28;20505;-88
2021/06/13 02:03:43;;;;;;;3.38;2.33;;;;;;;11.45;100.00;93185.94;4980683;28;20050;-87
2021/06/13 02:06:10;;;;;;;3.45;1.75;;;;;;;11.44;100.00;93192.09;4991191;28;20061;-88
2021/06/13 02:08:38;;;;;;;4.40;1.90;;;;;;;11.39;100.00;93187.56;4991203;28;20050;-87
2021/06/13 02:11:08;;;;;;;2.63;1.50;;;;;;;11.11;100.00;93152.09;4990926;28;20097;-87
2021/06/13 02:13:36;;;;;;;2.10;1.63;;;;;;;10.98;100.00;93135.00;4990508;28;20059;-85
2021/06/13 02:16:04;;;;;;;2.72;1.95;;;;;;;11.05;100.00;93149.38;4990771;28;20061;-86
2021/06/13 02:18:31;;;;;;;2.13;1.60;;;;;;;11.23;100.00;93176.09;4990839;28;20406;-85
2021/06/13 02:21:03;;;;;;;2.38;1.52;;;;;;;11.30;100.00;93170.88;4990667;28;20093;-86
2021/06/13 02:23:30;;;;;;;5.05;3.00;;;;;;;11.26;100.00;93164.59;4991626;28;20050;-86
2021/06/13 02:25:56;;;;;;;5.03;1.83;;;;;;;11.32;100.00;93151.66;4991282;28;20050;-88
2021/06/13 02:28:24;;;;;;;3.25;2.08;;;;;;;11.42;100.00;93176.06;4991276;28;20108;-87
2021/06/13 02:30:54;;;;;;;2.95;1.80;;;;;;;11.33;100.00;93160.16;4990818;28;20418;-86
2021/06/13 02:33:21;;;;;;;2.30;1.50;;;;;;;11.13;100.00;93139.81;4990643;28;20060;-87
2021/06/13 02:35:51;;;;;;;2.53;1.73;;;;;;;11.04;100.00;93140.09;4991058;28;20745;-85
2021/06/13 02:38:20;;;;;;;2.30;1.25;;;;;;;11.30;100.00;93170.88;4990947;28;20054;-85
2021/06/13 02:40:47;;;;;;;2.58;1.58;;;;;;;10.99;100.00;93121.97;4990062;28;20051;-86
2021/06/13 02:43:14;;;;;;;3.03;1.70;;;;;;;10.78;100.00;93113.66;4990185;28;20061;-85
2021/06/13 02:45:41;;;;;;;4.70;2.38;;;;;;;10.85;100.00;93123.88;4990237;28;20108;-87
2021/06/13 02:48:08;;;;;;;3.53;2.33;;;;;;;10.82;100.00;93114.00;4989969;28;20054;-86
2021/06/13 02:50:35;;;;;;;4.22;2.80;;;;;;;10.65;100.00;93096.59;4990455;28;20368;-85
2021/06/13 02:53:10;;;;;;;6.38;4.03;;;;;;;10.73;100.00;93115.31;4990343;28;20057;-87
2021/06/13 02:55:43;;;;;;;4.75;2.40;;;;;;;11.09;100.00;93165.94;4990249;28;20072;-87
2021/06/13 02:58:20;;;;;;;5.82;2.30;;;;;;;10.98;100.00;93153.81;4990183;28;20062;-87
2021/06/13 03:00:48;;;;;;;3.63;2.10;;;;;;;11.09;100.00;93170.28;4989886;28;20577;-85
2021/06/13 03:03:16;;;;;;;4.43;2.50;;;;;;;11.11;100.00;93176.00;4989996;28;20569;-85
2021/06/13 03:05:43;;;;;;;4.82;2.80;;;;;;;10.51;100.00;93100.28;4991604;28;20069;-86
2021/06/13 03:08:10;;;;;;;4.63;2.95;;;;;;;11.08;100.00;93166.16;4991472;28;20050;-86
2021/06/13 03:10:36;;;;;;;4.50;2.17;;;;;;;11.00;100.00;93151.00;4990159;28;20061;-89
2021/06/13 03:16:48;;;;;;;6.82;3.22;;;;;;;10.90;100.00;93129.16;4970569;28;20057;-93
2021/06/13 03:19:15;;;;;;;3.83;1.98;;;;;;;10.86;100.00;93133.16;4971937;28;20557;-87
2021/06/13 03:21:44;;;;;;;3.10;1.88;;;;;;;11.11;100.00;93160.56;4990605;28;20157;-87
2021/06/13 03:24:12;;;;;;;1.75;1.23;;;;;;;11.12;100.00;93162.16;4989560;28;20064;-89
2021/06/13 03:26:39;;;;;;;4.53;3.17;;;;;;;11.10;100.00;93164.16;4991570;28;20057;-88
2021/06/13 03:29:06;;;;;;;5.88;3.35;;;;;;;11.13;100.00;93168.88;4989613;28;20054;-89
2021/06/13 03:31:33;;;;;;;6.25;2.95;;;;;;;11.19;100.00;93168.00;4989616;28;20057;-84
2021/06/13 03:34:01;;;;;;;6.75;3.28;;;;;;;11.21;100.00;93168.56;4989769;28;20065;-84
2021/06/13 03:36:30;;;;;;;7.80;3.78;;;;;;;11.01;100.00;93125.09;4989324;28;20064;-83
2021/06/13 03:38:58;;;;;;;8.43;3.65;;;;;;;11.20;100.00;93158.53;4989800;28;20077;-84
2021/06/13 03:41:25;;;;;;;3.35;2.40;;;;;;;11.28;100.00;93165.16;4989828;28;20050;-83
2021/06/13 03:43:54;;;;;;;5.90;3.95;;;;;;;10.98;100.00;93119.59;4993549;28;20047;-87
2021/06/13 03:46:22;;;;;;;10.85;3.42;;;;;;;11.09;100.00;93119.69;4993490;28;20057;-87
2021/06/13 03:48:50;;;;;;;7.03;3.22;;;;;;;11.31;100.00;93123.59;4990614;28;20508;-88
2021/06/13 03:51:20;;;;;;;5.10;2.60;;;;;;;11.69;100.00;93163.69;4962430;28;20573;-86
2021/06/13 03:53:54;;;;;;;8.32;2.80;;;;;;;11.46;100.00;93108.56;4963543;28;20396;-85
2021/06/13 03:56:24;;;;;;;7.65;4.10;;;;;;;11.94;100.00;93172.28;4965007;28;20051;-84
2021/06/13 03:58:51;;;;;;;4.78;2.72;;;;;;;12.00;100.00;93167.03;4961942;28;20672;-85
2021/06/13 04:01:20;;;;;;;3.53;2.33;;;;;;;12.06;100.00;93168.00;4964057;28;20039;-86
2021/06/13 04:03:49;;;;;;;2.78;2.13;;;;;;;12.09;100.00;93164.19;4962099;28;20043;-86
2021/06/13 04:06:16;;;;;;;4.50;2.63;;;;;;;11.67;100.00;93098.78;4963096;28;20060;-90
2021/06/13 04:08:46;;;;;;;3.03;2.22;;;;;;;11.81;100.00;93114.06;4964871;28;20093;-89
2021/06/13 04:11:14;;;;;;;4.85;2.50;;;;;;;12.07;100.00;93143.03;4964957;28;20138;-91
2021/06/13 04:13:41;;;;;;;3.63;2.92;;;;;;;11.55;100.00;93072.25;4968336;28;20081;-89
2021/06/13 04:16:09;;;;;;;7.45;3.00;;;;;;;11.71;100.00;93094.78;4967463;28;20057;-91
2021/06/13 04:18:37;;;;;;;4.32;2.20;;;;;;;11.94;100.00;93101.00;4966555;28;20384;-90
2021/06/13 04:21:05;;;;;;;4.63;2.90;;;;;;;12.11;100.00;93119.19;4962860;28;20053;-88
2021/06/13 04:23:33;;;;;;;5.32;2.72;;;;;;;12.41;100.00;93151.06;4963486;28;20051;-88
2021/06/13 04:26:02;;;;;;;4.65;2.85;;;;;;;12.39;100.00;93133.25;4958921;28;20052;-87
2021/06/13 04:28:30;;;;;;;5.90;2.35;;;;;;;12.22;100.00;93104.00;4980560;28;20060;-86
2021/06/13 04:31:11;;;;;;;6.25;2.60;;;;;;;12.19;100.00;93092.34;4992454;28;20053;-88
2021/06/13 04:33:38;;;;;;;3.33;2.55;;;;;;;12.70;100.00;93151.19;4992731;28;20061;-87
2021/06/13 04:36:06;;;;;;;6.10;2.58;;;;;;;12.75;100.00;93158.22;4992621;28;20061;-86
2021/06/13 04:38:33;;;;;;;7.40;3.08;;;;;;;12.42;100.00;93089.00;4992955;28;20050;-86
2021/06/13 04:41:03;;;;;;;3.28;2.35;;;;;;;12.51;100.00;93111.84;4993219;28;20478;-86
2021/06/13 04:43:30;;;;;;;4.35;2.45;;;;;;;12.96;100.00;93147.38;4992970;28;20050;-87
2021/06/13 04:45:57;;;;;;;7.25;3.33;;;;;;;13.06;100.00;93141.63;4992032;28;20050;-87
2021/06/13 04:48:24;;;;;;;6.18;3.28;;;;;;;13.11;100.00;93153.88;4992422;28;20049;-88
2021/06/13 04:50:51;;;;;;;8.63;3.00;;;;;;;12.75;100.00;93086.06;4992575;28;20096;-88
2021/06/13 04:53:47;;;;;;;8.98;3.72;;;;;;;13.36;100.00;93148.44;4992260;28;20053;-87
2021/06/13 04:56:21;;;;;;;9.00;3.72;;;;;;;13.54;100.00;93153.66;4991773;28;20050;-87
2021/06/13 04:58:48;;;;;;;8.57;4.15;;;;;;;13.61;100.00;93133.69;4991769;28;20057;-87
2021/06/13 05:01:15;;;;;;;6.97;3.70;;;;;;;13.95;100.00;93151.06;4992184;28;20050;-86
2021/06/13 05:03:43;;;;;;;9.63;4.22;;;;;;;13.48;100.00;93083.13;4991563;28;20043;-86
2021/06/13 05:06:10;;;;;;;6.72;4.05;;;;;;;13.82;100.00;93142.59;4992132;28;20054;-88
2021/06/13 05:08:42;;;;;;;9.70;4.55;;;;;;;13.83;100.00;93108.00;4992145;28;20046;-88
2021/06/13 05:11:12;;;;;;;12.10;4.75;;;;;;;13.72;100.00;93096.72;4992217;28;20046;-88
2021/06/13 05:13:41;;;;;;;9.35;5.05;;;;;;;14.07;100.00;93115.63;4992370;28;20065;-88
2021/06/13 05:16:08;;;;;;;7.80;3.97;;;;;;;14.62;99.01;93159.88;4992462;28;20050;-84
2021/06/13 05:18:35;;;;;;;16.15;5.40;;;;;;;14.69;98.75;93154.56;4992356;28;20047;-85
2021/06/13 05:21:03;;;;;;;7.78;4.18;;;;;;;14.83;96.65;93139.53;4992101;28;20050;-88
2021/06/13 05:23:32;;;;;;;8.80;5.30;;;;;;;14.69;94.68;93093.28;4991536;28;20054;-88
2021/06/13 05:26:01;;;;;;;6.07;3.28;;;;;;;15.11;95.63;93155.94;4992454;28;20141;-88
2021/06/13 05:28:29;;;;;;;6.57;3.50;;;;;;;15.07;94.77;93113.47;4992084;28;20053;-87
2021/06/13 05:30:57;;;;;;;8.88;4.03;;;;;;;15.54;94.30;93151.03;4992247;28;20129;-88
2021/06/13 05:33:25;;;;;;;7.82;3.67;;;;;;;15.53;91.98;93104.66;4987569;28;20058;-89
2021/06/13 05:35:52;;;;;;;9.93;3.58;;;;;;;15.97;90.39;93122.75;4989758;28;20413;-89
2021/06/13 05:38:19;;;;;;;10.32;5.55;;;;;;;16.06;89.30;93114.53;4992029;28;20414;-89
2021/06/13 05:40:51;;;;;;;11.38;5.40;;;;;;;16.38;88.18;93148.22;4992726;28;20054;-87
2021/06/13 05:43:21;;;;;;;13.63;5.50;;;;;;;15.97;88.84;93062.38;4991254;28;20054;-91
2021/06/13 06:06:51;;;;;;;14.02;7.47;;;;;;;16.53;84.92;93024.94;4813994;29;20188;-93
2021/06/13 06:09:19;;;;;;;16.60;7.05;;;;;;;16.98;85.01;93066.91;4802903;29;20055;-91
2021/06/13 06:11:46;;;;;;;19.05;7.07;;;;;;;17.27;86.35;93099.50;4801156;29;20086;-90
2021/06/13 06:14:13;;;;;;;18.02;6.05;;;;;;;17.64;84.66;93142.75;4854933;29;20128;-89
2021/06/13 06:16:40;;;;;;;13.98;7.07;;;;;;;17.81;84.99;93145.13;4894813;29;20052;-88
2021/06/13 06:19:07;;;;;;;12.30;6.65;;;;;;;17.89;84.61;93149.03;4931433;28;20058;-89
2021/06/13 06:21:34;;;;;;;12.52;5.40;;;;;;;17.47;84.07;93052.84;4951716;28;20046;-91
2021/06/13 06:24:00;;;;;;;9.70;5.97;;;;;;;18.21;84.44;93142.09;4951706;28;20058;-90
2021/06/13 06:26:29;;;;;;;12.15;5.75;;;;;;;18.03;84.53;93099.94;4951582;28;20093;-89
2021/06/13 06:28:55;;;;;;;16.17;6.32;;;;;;;17.79;85.26;93087.44;4951559;28;20500;-91
2021/06/13 06:31:23;;;;;;;12.75;5.32;;;;;;;17.50;85.24;93052.31;4951689;28;20051;-90
2021/06/13 06:33:49;;;;;;;12.32;4.97;;;;;;;17.97;84.79;93080.94;4951861;28;20141;-92
2021/06/13 06:36:16;;;;;;;11.35;5.40;;;;;;;18.41;83.98;93131.72;4951742;28;20138;-91
2021/06/13 06:38:43;;;;;;;10.75;5.20;;;;;;;18.27;84.71;93089.84;4951843;28;20271;-91
2021/06/13 06:41:10;;;;;;;9.90;3.95;;;;;;;18.70;83.73;93145.97;4951608;28;20058;-88
2021/06/13 06:43:39;;;;;;;11.20;4.88;;;;;;;18.30;83.41;93072.94;4951923;28;20059;-87
2021/06/13 06:46:06;;;;;;;10.93;4.70;;;;;;;17.76;84.21;93069.75;4951110;28;20133;-91
2021/06/13 06:48:33;;;;;;;17.73;5.72;;;;;;;18.09;85.87;93113.75;4954485;28;20109;-91
2021/06/13 06:51:01;;;;;;;11.65;4.22;;;;;;;18.36;85.03;93133.50;4951875;28;20079;-90
2021/06/13 06:53:36;;;;;;;8.80;4.03;;;;;;;18.39;85.09;93107.00;4951350;28;20155;-93
2021/06/13 06:56:03;;;;;;;14.48;5.68;;;;;;;18.11;85.68;93038.91;4952112;28;20137;-92
2021/06/13 06:58:29;;;;;;;5.90;3.72;;;;;;;18.56;85.71;93094.50;4986338;28;20069;-90
2021/06/13 07:00:58;;;;;;;9.15;3.38;;;;;;;19.00;85.20;93130.59;4989820;28;20050;-89
2021/06/13 07:03:25;;;;;;;11.07;4.10;;;;;;;18.76;83.05;93064.31;4990011;28;20521;-90
2021/06/13 07:05:52;;;;;;;6.55;3.83;;;;;;;19.16;82.00;93084.50;4989820;28;20068;-89
2021/06/13 07:08:19;;;;;;;8.68;4.40;;;;;;;19.36;81.02;93131.28;4990091;28;20145;-89
2021/06/13 07:10:46;;;;;;;8.48;3.97;;;;;;;19.69;81.87;93124.91;4990093;28;20108;-90
2021/06/13 07:13:13;;;;;;;7.53;3.85;;;;;;;20.02;79.62;93126.06;4994965;28;20230;-90
2021/06/13 07:15:40;;;;;;;5.47;3.25;;;;;;;20.64;78.27;93119.59;4998944;28;20070;-88
2021/06/13 07:18:08;;;;;;;8.32;3.45;;;;;;;20.95;75.85;93121.94;4997317;28;20053;-90
2021/06/13 07:20:36;;;;;;;13.23;5.25;;;;;;;20.99;73.85;93072.56;4994005;28;20148;-88
2021/06/13 07:23:03;;;;;;;9.05;3.97;;;;;;;21.38;71.69;93090.94;4993617;28;20541;-87
2021/06/13 07:25:29;;;;;;;8.95;4.85;;;;;;;21.70;72.19;93119.03;4993709;28;20052;-87
2021/06/13 07:27:56;;;;;;;9.93;4.47;;;;;;;21.66;71.51;93083.28;4993619;28;20498;-89
2021/06/13 07:30:23;;;;;;;7.53;3.95;;;;;;;21.86;69.73;93111.75;4993760;28;20061;-89
2021/06/13 07:32:55;;;;;;;10.45;4.22;;;;;;;21.62;69.35;93085.66;4993537;28;20513;-92
2021/06/13 07:35:23;;;;;;;5.45;3.03;;;;;;;21.67;67.76;93103.13;4993701;28;20484;-90
2021/06/13 07:37:50;;;;;;;7.50;3.80;;;;;;;21.41;70.07;93051.97;4993630;28;20042;-90
2021/06/13 07:40:22;;;;;;;7.00;3.97;;;;;;;22.06;70.72;93102.09;4993619;28;20050;-91
2021/06/13 07:42:50;;;;;;;10.50;3.97;;;;;;;22.03;69.94;93040.66;4993856;28;20490;-91
2021/06/13 07:45:17;;;;;;;5.95;3.40;;;;;;;22.35;68.46;93048.78;4993383;28;20043;-92
2021/06/13 07:47:45;;;;;;;5.93;3.75;;;;;;;22.48;66.24;93010.63;4993610;28;20077;-91
2021/06/13 07:50:15;;;;;;;4.43;2.10;;;;;;;22.69;63.79;93071.25;4994824;28;20113;-91
2021/06/13 07:52:44;;;;;;;4.72;3.35;;;;;;;22.48;64.21;93008.00;4993825;28;20494;-91
2021/06/13 07:55:16;;;;;;;7.93;3.08;;;;;;;23.06;62.62;93099.44;4997111;28;20057;-92
2021/06/13 07:57:44;;;;;;;5.20;2.60;;;;;;;22.92;64.01;93094.19;4993642;28;20058;-91
2021/06/13 08:00:13;;;;;;;6.25;2.75;;;;;;;23.04;66.24;93096.31;4993672;28;20601;-87
2021/06/13 08:02:40;;;;;;;4.78;3.08;;;;;;;23.05;64.25;93082.19;4993388;28;20069;-87
2021/06/13 08:05:11;;;;;;;5.13;3.22;;;;;;;23.19;65.64;93093.41;4993001;28;20137;-86
2021/06/13 08:07:38;;;;;;;8.68;3.15;;;;;;;23.16;66.63;93094.00;4993252;28;20050;-86
2021/06/13 08:10:07;;;;;;;4.20;2.60;;;;;;;23.20;65.93;93096.81;4992950;28;20038;-85
2021/06/13 08:12:35;;;;;;;5.95;3.22;;;;;;;23.09;64.27;93099.63;4992859;28;20057;-86
2021/06/13 08:15:02;;;;;;;4.28;2.65;;;;;;;23.01;64.83;93078.59;4992858;28;20050;-86
2021/06/13 08:17:28;;;;;;;5.25;3.55;;;;;;;22.72;66.05;93050.81;4992800;28;20046;-88
2021/06/13 08:19:55;;;;;;;8.77;4.57;;;;;;;23.11;64.23;93099.34;4992609;28;20042;-89
2021/06/13 08:22:22;;;;;;;6.40;4.07;;;;;;;22.95;65.04;93098.84;4993048;28;20128;-90
2021/06/13 08:24:49;;;;;;;5.13;3.00;;;;;;;22.53;63.15;93046.41;4992454;28;20057;-91
2021/06/13 08:27:17;;;;;;;4.85;3.03;;;;;;;22.43;64.46;93090.00;4992191;28;20089;-90
2021/06/13 08:29:44;;;;;;;4.82;2.67;;;;;;;21.98;64.82;92996.28;4992412;28;20046;-92
2021/06/13 08:32:11;;;;;;;4.32;2.67;;;;;;;22.21;66.09;93058.44;4992803;28;20058;-89
2021/06/13 08:34:38;;;;;;;7.03;2.83;;;;;;;21.92;66.16;93073.25;4992462;28;20093;-93
2021/06/13 08:37:05;;;;;;;3.38;2.70;;;;;;;21.45;70.67;93092.16;4993286;28;20484;-85
2021/06/13 08:39:32;;;;;;;5.00;3.00;;;;;;;20.82;73.72;93099.06;4992762;28;20450;-87
2021/06/13 08:41:59;;;;;;;8.63;4.80;;;;;;;20.06;77.99;93066.34;4993145;28;20058;-87
2021/06/13 08:44:27;;;;;;;6.78;4.90;;;;;;;20.00;79.15;93109.13;4992850;28;20054;-86
2021/06/13 08:46:57;;;;;;;5.78;3.42;;;;;;;18.89;82.76;93072.59;4992149;28;20498;-88
2021/06/13 08:49:24;;;;;;;4.97;3.35;;;;;;;18.93;87.25;93117.88;4992443;28;20054;-84
2021/06/13 08:51:51;;;;;;;4.38;2.95;;;;;;;18.99;90.59;93123.84;4992181;28;20050;-79
2021/06/13 08:54:18;;;;;;;4.72;2.67;;;;;;;18.60;93.54;93127.81;4992251;28;20051;-79
2021/06/13 08:56:45;;;;;;;5.68;3.33;;;;;;;18.27;97.49;93121.03;4992260;28;20077;-79
2021/06/13 08:59:13;;;;;;;5.57;3.92;;;;;;;18.39;99.37;93122.59;4992095;28;20066;-82
2021/06/13 09:01:42;;;;;;;6.22;2.97;;;;;;;18.43;97.62;93127.00;4991994;28;20097;-81
2021/06/13 09:04:08;;;;;;;6.75;3.92;;;;;;;18.46;97.06;93112.72;4992280;28;20426;-82
2021/06/13 09:06:36;;;;;;;5.18;3.25;;;;;;;18.64;97.21;93134.03;4992291;28;20056;-81
2021/06/13 09:09:17;;;;;;;6.60;2.92;;;;;;;18.47;96.22;93142.13;4991968;28;20051;-82
2021/06/13 09:11:58;;;;;;;3.83;2.38;;;;;;;18.32;97.40;93141.06;4992078;28;20046;-80
2021/06/13 09:14:25;;;;;;;5.60;2.90;;;;;;;18.16;99.20;93141.03;4992055;28;20050;-80
2021/06/13 09:16:53;;;;;;;3.97;2.42;;;;;;;18.16;98.88;93140.28;4991710;28;20050;-80
2021/06/13 09:19:20;;;;;;;4.57;2.85;;;;;;;17.96;100.00;93143.59;4991989;28;20110;-80
2021/06/13 09:21:47;;;;;;;5.05;3.22;;;;;;;17.64;100.00;93158.31;4991704;28;20054;-80
2021/06/13 09:24:20;;;;;;;4.35;2.78;;;;;;;17.70;100.00;93159.09;4991942;28;20043;-80
2021/06/13 09:26:47;;;;;;;3.80;2.33;;;;;;;17.66;100.00;93158.06;4991406;28;20050;-81
2021/06/13 09:29:14;;;;;;;3.70;2.70;;;;;;;17.19;100.00;93140.50;4991745;28;20046;-81
2021/06/13 09:31:41;;;;;;;3.70;3.00;;;;;;;17.35;100.00;93166.50;4991616;28;20047;-81
2021/06/13 09:34:16;;;;;;;4.72;2.95;;;;;;;17.07;100.00;93171.03;4987720;28;20056;-82
2021/06/13 09:36:43;;;;;;;4.75;3.30;;;;;;;17.00;100.00;93163.44;4989349;28;20058;-81
2021/06/13 09:39:11;;;;;;;6.57;3.90;;;;;;;16.88;100.00;93162.84;4989641;28;20050;-82
2021/06/13 09:41:40;;;;;;;5.57;3.47;;;;;;;16.83;100.00;93166.19;4991344;28;20046;-82
2021/06/13 09:44:08;;;;;;;5.07;3.50;;;;;;;16.68;100.00;93146.13;4991177;28;20058;-81
2021/06/13 09:46:37;;;;;;;4.45;3.33;;;;;;;16.56;100.00;93152.25;4991287;28;20054;-82
2021/06/13 09:49:06;;;;;;;5.30;3.45;;;;;;;16.46;100.00;93165.16;4991073;28;20061;-82
2021/06/13 09:51:36;;;;;;;6.35;3.92;;;;;;;16.59;100.00;93158.75;4991230;28;20069;-81
2021/06/13 09:54:04;;;;;;;7.40;4.30;;;;;;;16.53;100.00;93162.34;4991275;28;20054;-82
2021/06/13 09:56:34;;;;;;;5.75;4.03;;;;;;;16.69;100.00;93173.63;4990851;28;20053;-82
2021/06/13 09:59:03;;;;;;;4.88;3.33;;;;;;;16.70;100.00;93151.81;4991148;28;20049;-82
2021/06/13 10:01:33;;;;;;;5.93;3.97;;;;;;;16.60;100.00;93142.16;4990873;28;20050;-82
2021/06/13 10:04:01;;;;;;;5.15;3.85;;;;;;;16.65;100.00;93165.56;4990937;28;20104;-81
2021/06/13 10:06:35;;;;;;;5.65;3.78;;;;;;;16.81;100.00;93170.84;4990406;28;20051;-81
2021/06/13 10:09:04;;;;;;;4.43;2.42;;;;;;;16.65;100.00;93182.91;4990987;28;20053;-81
2021/06/13 10:11:32;;;;;;;4.88;3.13;;;;;;;16.77;100.00;93178.34;4990777;28;20050;-81
2021/06/13 10:14:00;;;;;;;3.53;2.83;;;;;;;16.84;100.00;93159.97;4990604;28;20066;-81
2021/06/13 10:16:35;;;;;;;3.92;3.15;;;;;;;16.89;100.00;93165.19;4990306;28;20518;-80
2021/06/13 10:19:05;;;;;;;3.65;2.78;;;;;;;16.93;100.00;93171.44;4990615;28;20129;-81
2021/06/13 10:21:36;;;;;;;5.07;3.28;;;;;;;16.74;100.00;93165.06;4990577;28;20042;-80
2021/06/13 10:24:09;;;;;;;4.95;2.72;;;;;;;16.86;100.00;93163.09;4990472;28;20520;-80
2021/06/13 10:26:39;;;;;;;3.33;2.08;;;;;;;16.73;100.00;93166.91;4990317;28;20093;-82
2021/06/13 10:29:07;;;;;;;4.28;2.58;;;;;;;16.92;100.00;93164.69;4991106;28;20054;-80
2021/06/13 10:31:34;;;;;;;3.55;2.50;;;;;;;16.97;100.00;93163.94;4991055;28;20050;-81
2021/06/13 10:34:02;;;;;;;3.45;2.55;;;;;;;16.54;100.00;93120.59;4990941;28;20387;-81
2021/06/13 10:36:32;;;;;;;3.28;2.35;;;;;;;16.66;100.00;93161.16;4990757;28;20569;-80
2021/06/13 10:39:00;;;;;;;3.05;2.53;;;;;;;16.78;100.00;93159.16;4990989;28;20104;-80
2021/06/13 10:41:27;;;;;;;4.85;2.50;;;;;;;16.85;100.00;93166.72;4990490;28;20051;-80
2021/06/13 10:44:00;;;;;;;4.80;2.92;;;;;;;16.70;100.00;93155.22;4990689;28;20062;-82
2021/06/13 10:46:31;;;;;;;4.22;2.88;;;;;;;16.68;100.00;93139.09;4990432;28;20046;-81
2021/06/13 10:48:59;;;;;;;3.97;2.80;;;;;;;16.80;100.00;93162.28;4990903;28;20050;-80
2021/06/13 10:51:32;;;;;;;3.80;2.22;;;;;;;16.81;100.00;93168.25;4990402;28;20062;-81
2021/06/13 10:54:29;;;;;;;3.90;2.58;;;;;;;16.91;100.00;93162.34;4986141;28;20142;-80
2021/06/13 10:57:12;;;;;;;4.03;2.65;;;;;;;17.05;100.00;93152.34;4970628;28;20054;-79
2021/06/13 10:59:41;;;;;;;3.17;2.00;;;;;;;17.22;100.00;93152.94;4970563;28;20545;-80
2021/06/13 11:02:10;;;;;;;4.15;2.35;;;;;;;17.19;100.00;93161.25;4971268;28;20054;-80
2021/06/13 11:04:47;;;;;;;2.45;1.40;;;;;;;17.13;100.00;93161.47;4971331;28;20055;-80
2021/06/13 11:07:47;;;;;;;2.70;1.65;;;;;;;16.90;100.00;93163.38;4990063;28;20133;-80
2021/06/13 11:10:17;;;;;;;2.10;1.50;;;;;;;16.86;100.00;93154.53;4990149;28;20143;-80
2021/06/13 11:12:48;;;;;;;2.47;1.52;;;;;;;16.96;100.00;93162.38;4990158;28;20089;-79
2021/06/13 11:15:19;;;;;;;4.88;2.25;;;;;;;16.83;100.00;93168.78;4985414;28;20056;-80
2021/06/13 11:17:53;;;;;;;2.65;1.70;;;;;;;17.07;100.00;93171.81;4988272;28;20533;-79
2021/06/13 11:20:45;;;;;;;3.47;1.75;;;;;;;17.00;100.00;93166.03;4989535;28;20531;-80
2021/06/13 11:23:16;;;;;;;1.92;1.10;;;;;;;17.09;100.00;93163.78;4989715;28;20479;-82
2021/06/13 11:25:44;;;;;;;2.15;1.10;;;;;;;16.77;100.00;93165.38;4989567;28;20606;-80
2021/06/13 11:28:18;;;;;;;1.80;1.08;;;;;;;16.89;100.00;93162.59;4990075;28;20046;-80
2021/06/13 11:30:48;;;;;;;2.70;1.63;;;;;;;17.03;100.00;93167.38;4989616;28;20510;-80
2021/06/13 11:33:37;;;;;;;3.72;1.75;;;;;;;16.83;100.00;93142.84;4989859;28;20050;-80
2021/06/13 11:36:06;;;;;;;3.22;1.67;;;;;;;17.06;100.00;93152.09;4989724;28;20145;-80
2021/06/13 11:38:34;;;;;;;4.47;2.30;;;;;;;17.31;100.00;93157.66;4989469;28;20101;-81
2021/06/13 11:41:04;;;;;;;3.38;1.67;;;;;;;17.50;100.00;93155.41;4989626;28;20061;-81
2021/06/13 11:43:43;;;;;;;2.60;1.58;;;;;;;17.45;100.00;93142.41;4950761;28;20062;-81
2021/06/13 11:46:12;;;;;;;2.75;1.52;;;;;;;17.61;100.00;93133.63;4950557;28;20047;-81
2021/06/13 11:48:50;;;;;;;2.10;1.30;;;;;;;17.86;100.00;93160.72;4954896;28;20051;-81
2021/06/13 11:51:18;;;;;;;3.58;1.52;;;;;;;17.90;100.00;93169.56;4970319;28;20073;-80
2021/06/13 11:54:02;;;;;;;1.63;1.00;;;;;;;17.47;100.00;93163.69;4970200;28;20105;-82
2021/06/13 11:56:54;;;;;;;1.90;1.10;;;;;;;17.05;100.00;93160.13;4969954;28;20051;-81
2021/06/13 11:59:23;;;;;;;1.83;1.10;;;;;;;17.11;100.00;93166.13;4955400;28;20057;-81
2021/06/13 12:01:56;;;;;;;2.05;1.10;;;;;;;17.24;100.00;93157.91;4969689;28;20061;-81